航空気象通報

ウインドサーファーのための航空気象通報による風予報です。

4/13-14の航空気象通報(国内、海外)

2008年04月13日 22時35分59秒 | TAF
羽田空港
TAF RJTT 130852Z 131812 36008KT 8000 -SHRA FEW006 SCT010 BKN020
TEMPO 1821 4000 -SHRA BR FEW004 BKN008 BKN015
BECMG 0306 07010KT
TEMPO 0609 SHRA
日本時間14日03-12時:360度から8ノットの風
12-15時:風が変化
15-21時:070度から10ノットの風


那覇空港
TAF ROAH 130849Z 131812 36012KT 9999 FEW015 SCT045
日本時間14日03-21時:360度から12ノットの風


マウイのカフルイ空港
PHOG 131134Z 131212 04012KT P6SM SCT050
FM1700 05012G20KT P6SM SCT050
FM2000 05018G25KT P6SM FEW035 SCT050
FM0600 05012G18KT P6SM SCT040 SCT060
ハワイ時間13日02-07時:040度から12ノットの風
07-10時:050度から12ノット、突風20ノット
10-20時:050度から18ノット、突風25ノット
20時-14日02時:050度から18ノット、突風18ノット


サイパン空港
PGSN 131120Z 131212 07009KT P6SM VCSH FEW015
FM2300 07012G18KT P6SM VCSH SCT020
FM1000 07009KT P6SM VCSH FEW015
マリアナ時間13日22時-14日09時:070度から9ノットの風
09-20時:070度から12ノット、突風18ノット
20-22時:070度から9ノットの風
コメント

4/12-13の航空気象通報(国内、海外)

2008年04月13日 00時22分14秒 | TAF
羽田空港
TAF RJTT 121446Z 130018 02012KT 9999 FEW010 BKN015 BKN030
日本時間13日09時-14日03時:020度から12ノットの風


那覇空港
TAF ROAH 121449Z 130018 16007KT 9999 FEW015 BKN030
BECMG 0912 30014KT
TEMPO 0915 4000 SHRA
日本時間13日09-18時:160度から7ノットの風
18-21時:風が変化
21時-14日03時:300度から14ノットの風
、但し、13日18-24時:一時、

マウイのカフルイ空港
PHOG 121134Z 121212 05008G16KT P6SM SCT050
FM1800 05012G20KT P6SM SCT050
FM2000 05018G25KT P6SM FEW035 SCT050
FM0300 05012G20KT P6SM FEW035 SCT050
FM1000 05012KT P6SM SCT050
ハワイ時間12日02-08時:050度から8ノット、突風16ノット
08-10時:050度から12ノット、突風20ノット
10-17時:050度から18ノット、突風25ノット
17-24時:050度から12ノット、突風20ノット
13日00-02時:050度から12ノットの風


サイパン空港
PGSN 121128Z 121212 08015KT P6SM VCSH SCT020
マリアナ時間12日22時-13日22時:080度から15ノットの風

コメント